createdAt,value
2017-05-23T00:01:19.527Z,16.60
2017-05-23T00:03:48.628Z,16.70
2017-05-23T00:06:17.739Z,16.70
2017-05-23T00:08:46.870Z,16.60
2017-05-23T00:11:15.925Z,16.60
2017-05-23T00:13:45.161Z,16.60
2017-05-23T00:16:14.244Z,16.60
2017-05-23T00:18:43.319Z,16.60
2017-05-23T00:21:12.397Z,16.60
2017-05-23T00:23:41.473Z,16.60
2017-05-23T00:26:10.634Z,16.60
2017-05-23T00:28:39.725Z,16.60
2017-05-23T00:31:09.037Z,16.40
2017-05-23T00:33:38.041Z,16.40
2017-05-23T00:36:07.398Z,16.30
2017-05-23T00:38:36.504Z,16.40
2017-05-23T00:41:05.610Z,16.30
2017-05-23T00:43:34.763Z,16.30
2017-05-23T00:46:03.954Z,16.30
2017-05-23T00:48:33.025Z,16.20
2017-05-23T00:51:02.174Z,16.10
2017-05-23T00:53:31.248Z,16.10
2017-05-23T00:56:00.300Z,16.00
2017-05-23T00:58:29.475Z,15.90
2017-05-23T01:00:58.758Z,15.90
2017-05-23T01:03:28.100Z,15.90
2017-05-23T01:05:57.239Z,15.80
2017-05-23T01:08:26.330Z,15.80
2017-05-23T01:10:55.666Z,15.80
2017-05-23T01:13:24.777Z,15.80
2017-05-23T01:15:54.085Z,15.80
2017-05-23T01:18:23.358Z,15.70
2017-05-23T01:20:52.563Z,15.70
2017-05-23T01:23:21.913Z,15.70
2017-05-23T01:25:51.174Z,15.70
2017-05-23T01:28:20.282Z,15.70
2017-05-23T01:30:49.371Z,15.70
2017-05-23T01:33:18.553Z,15.80
2017-05-23T01:35:47.628Z,15.80
2017-05-23T01:38:16.803Z,15.80
2017-05-23T01:40:46.033Z,15.80
2017-05-23T01:43:15.339Z,15.80
2017-05-23T01:45:44.539Z,15.80
2017-05-23T01:48:13.740Z,15.70
2017-05-23T01:50:42.865Z,15.80
2017-05-23T01:53:11.907Z,15.80
2017-05-23T01:55:41.025Z,15.80
2017-05-23T01:58:10.105Z,15.70
2017-05-23T02:00:39.163Z,15.70
2017-05-23T02:03:08.367Z,15.70
2017-05-23T02:05:37.546Z,15.70
2017-05-23T02:08:06.644Z,15.70
2017-05-23T02:10:35.917Z,15.70
2017-05-23T02:13:05.071Z,15.60
2017-05-23T02:15:34.235Z,15.70
2017-05-23T02:18:03.339Z,15.80
2017-05-23T02:20:32.407Z,15.80
2017-05-23T02:23:01.751Z,15.80
2017-05-23T02:25:30.818Z,15.80
2017-05-23T02:27:59.901Z,15.70
2017-05-23T02:30:29.035Z,15.70
2017-05-23T02:32:58.365Z,15.70
2017-05-23T02:35:27.590Z,15.70
2017-05-23T02:37:56.673Z,15.70
2017-05-23T02:40:25.765Z,15.70
2017-05-23T02:42:54.817Z,15.70
2017-05-23T02:45:23.930Z,15.60
2017-05-23T02:47:53.040Z,15.60
2017-05-23T02:50:22.152Z,15.60
2017-05-23T02:52:51.381Z,15.60
2017-05-23T02:55:20.597Z,15.50
2017-05-23T02:57:49.794Z,15.50
2017-05-23T03:00:18.974Z,15.50
2017-05-23T03:02:48.058Z,15.40
2017-05-23T03:05:17.284Z,15.40
2017-05-23T03:07:46.376Z,15.50
2017-05-23T03:10:15.712Z,15.60
2017-05-23T03:12:44.843Z,15.60
2017-05-23T03:15:14.201Z,15.70
2017-05-23T03:17:43.339Z,15.70
2017-05-23T03:20:12.486Z,15.70
2017-05-23T03:22:41.527Z,15.70
2017-05-23T03:25:10.617Z,15.80
2017-05-23T03:27:39.998Z,15.80
2017-05-23T03:30:09.226Z,15.80
2017-05-23T03:32:38.579Z,15.80
2017-05-23T03:35:08.098Z,15.90
2017-05-23T03:37:37.158Z,15.80
2017-05-23T03:40:06.264Z,15.60
2017-05-23T03:42:35.366Z,15.70
2017-05-23T03:45:04.564Z,15.70
2017-05-23T03:47:33.665Z,15.60
2017-05-23T03:50:02.780Z,15.60
2017-05-23T03:52:31.941Z,15.50
2017-05-23T03:55:01.567Z,15.50
2017-05-23T03:57:30.735Z,15.50
2017-05-23T03:59:59.895Z,15.40
2017-05-23T04:02:29.230Z,15.40
2017-05-23T04:04:58.351Z,15.40
2017-05-23T04:07:27.902Z,15.40
2017-05-23T04:09:57.088Z,15.40
2017-05-23T04:12:26.516Z,15.40
2017-05-23T04:14:55.691Z,15.40
2017-05-23T04:17:24.789Z,15.40
2017-05-23T04:19:54.029Z,15.40
2017-05-23T04:22:23.360Z,15.40
2017-05-23T04:24:52.471Z,15.40
2017-05-23T04:27:21.728Z,15.50
2017-05-23T04:29:50.932Z,15.50
2017-05-23T04:32:20.118Z,15.70
2017-05-23T04:34:49.244Z,15.60
2017-05-23T04:37:18.381Z,15.60
2017-05-23T04:39:47.508Z,15.60
2017-05-23T04:42:16.939Z,15.60
2017-05-23T04:44:46.567Z,15.60
2017-05-23T04:47:15.643Z,15.60
2017-05-23T04:49:44.788Z,15.70
2017-05-23T04:52:14.099Z,15.80
2017-05-23T04:54:43.327Z,15.80
2017-05-23T04:57:12.588Z,15.70
2017-05-23T04:59:41.880Z,15.80
2017-05-23T05:02:11.009Z,15.80
2017-05-23T05:04:40.253Z,15.90
2017-05-23T05:07:10.662Z,15.80
2017-05-23T05:09:39.849Z,16.00
2017-05-23T05:12:08.958Z,15.80
2017-05-23T05:14:38.042Z,15.90
2017-05-23T05:17:07.174Z,15.90
2017-05-23T05:19:36.281Z,16.00
2017-05-23T05:22:05.560Z,15.90
2017-05-23T05:24:34.661Z,15.90
2017-05-23T05:27:03.902Z,16.00
2017-05-23T05:29:32.999Z,16.00
2017-05-23T05:32:02.261Z,16.10
2017-05-23T05:34:31.492Z,16.10
2017-05-23T05:37:00.794Z,16.30
2017-05-23T05:39:29.843Z,16.40
2017-05-23T05:41:58.896Z,16.60
2017-05-23T05:44:27.918Z,16.80
2017-05-23T05:46:56.941Z,17.00
2017-05-23T05:49:26.010Z,17.20
2017-05-23T05:51:55.160Z,17.50
2017-05-23T05:54:24.192Z,17.60
2017-05-23T05:56:53.261Z,17.90
2017-05-23T05:59:22.390Z,18.20
2017-05-23T06:01:51.425Z,18.50
2017-05-23T06:04:20.649Z,18.80
2017-05-23T06:06:49.666Z,19.00
2017-05-23T06:09:18.775Z,19.10
2017-05-23T06:11:48.133Z,19.10
2017-05-23T06:14:23.095Z,19.40
2017-05-23T06:16:52.290Z,19.50
2017-05-23T06:19:21.578Z,19.60
2017-05-23T06:21:50.836Z,19.80
2017-05-23T06:24:19.918Z,19.80
2017-05-23T06:26:49.561Z,19.90
2017-05-23T06:29:18.700Z,20.00
2017-05-23T06:31:47.798Z,20.10
2017-05-23T06:34:17.062Z,20.20
2017-05-23T06:36:46.224Z,20.20
2017-05-23T06:39:15.749Z,20.40
2017-05-23T06:41:44.832Z,20.60
2017-05-23T06:44:13.920Z,20.90
2017-05-23T06:46:43.007Z,21.10
2017-05-23T06:49:12.242Z,21.40
2017-05-23T06:51:41.412Z,21.80
2017-05-23T06:54:10.582Z,22.00
2017-05-23T06:56:39.649Z,22.40
2017-05-23T06:59:08.719Z,22.60
2017-05-23T07:01:37.829Z,22.90
2017-05-23T07:04:07.024Z,23.10
2017-05-23T07:06:36.187Z,23.40
2017-05-23T07:09:05.237Z,23.60
2017-05-23T07:11:34.315Z,23.90
2017-05-23T07:14:03.409Z,24.00
2017-05-23T07:16:32.541Z,24.30
2017-05-23T07:19:01.592Z,24.60
2017-05-23T07:21:30.723Z,24.90
2017-05-23T07:23:59.895Z,25.20
2017-05-23T07:26:29.262Z,25.20
2017-05-23T07:28:58.299Z,25.40
2017-05-23T07:31:27.407Z,25.60
2017-05-23T07:33:56.437Z,25.80
2017-05-23T07:36:25.533Z,25.50
2017-05-23T07:38:55.196Z,25.30
2017-05-23T07:41:24.297Z,25.40
2017-05-23T07:43:53.436Z,25.20
2017-05-23T07:46:22.720Z,25.20
2017-05-23T07:48:51.780Z,25.20
2017-05-23T07:51:21.210Z,25.30
2017-05-23T07:53:50.517Z,25.70
2017-05-23T07:56:19.831Z,26.10
2017-05-23T07:58:48.914Z,26.50
2017-05-23T08:01:18.217Z,27.20
2017-05-23T08:03:47.377Z,27.70
2017-05-23T08:06:16.430Z,27.90
2017-05-23T08:08:45.616Z,27.60
2017-05-23T08:11:14.981Z,27.70
2017-05-23T08:13:44.111Z,27.90
2017-05-23T08:16:13.193Z,28.40
2017-05-23T08:18:42.285Z,28.80
2017-05-23T08:21:11.492Z,29.00
2017-05-23T08:23:40.555Z,29.10
2017-05-23T08:26:09.584Z,29.10
2017-05-23T08:28:38.661Z,29.30
2017-05-23T08:31:07.764Z,29.40
2017-05-23T08:33:37.143Z,29.10
2017-05-23T08:36:06.269Z,28.90
2017-05-23T08:38:35.323Z,28.70
2017-05-23T08:41:04.411Z,28.60
2017-05-23T08:43:33.495Z,28.40
2017-05-23T08:46:02.849Z,28.30
2017-05-23T08:48:31.977Z,28.10
2017-05-23T08:51:01.166Z,27.80
2017-05-23T08:53:30.207Z,27.80
2017-05-23T08:55:59.332Z,27.40
2017-05-23T08:58:28.364Z,27.20
2017-05-23T09:00:57.624Z,27.20
2017-05-23T09:03:26.868Z,27.20
2017-05-23T09:05:56.004Z,27.30
2017-05-23T09:08:25.034Z,27.10
2017-05-23T09:10:54.179Z,27.20
2017-05-23T09:13:23.470Z,27.20
2017-05-23T09:15:52.701Z,27.00
2017-05-23T09:18:21.888Z,27.30
2017-05-23T09:20:50.957Z,27.10
2017-05-23T09:23:20.494Z,27.40
2017-05-23T09:25:55.258Z,27.10
2017-05-23T09:28:24.908Z,27.20
2017-05-23T09:30:54.020Z,27.10
2017-05-23T09:33:23.444Z,27.00
2017-05-23T09:35:52.821Z,27.20
2017-05-23T09:38:22.121Z,27.20
2017-05-23T09:40:51.172Z,27.20
2017-05-23T09:43:20.310Z,27.10
2017-05-23T09:45:49.357Z,27.30
2017-05-23T09:48:18.411Z,27.50
2017-05-23T09:50:47.431Z,27.60
2017-05-23T09:53:16.554Z,27.70
2017-05-23T09:55:45.586Z,27.80
2017-05-23T09:58:14.737Z,28.00
2017-05-23T10:00:43.745Z,27.70
2017-05-23T10:03:12.826Z,28.00
2017-05-23T10:05:41.858Z,28.00
2017-05-23T10:08:10.910Z,28.10
2017-05-23T10:10:39.931Z,28.00
2017-05-23T10:13:09.099Z,27.70
2017-05-23T10:15:38.126Z,27.50
2017-05-23T10:18:07.163Z,27.30
2017-05-23T10:20:36.284Z,27.50
2017-05-23T10:23:05.306Z,27.70
2017-05-23T10:25:34.334Z,27.50
2017-05-23T10:28:03.358Z,27.70
2017-05-23T10:30:32.424Z,27.70
2017-05-23T10:33:01.441Z,27.90
2017-05-23T10:35:30.518Z,28.00
2017-05-23T10:37:59.558Z,28.00
2017-05-23T10:40:28.629Z,28.10
2017-05-23T10:42:57.655Z,28.20
2017-05-23T10:45:26.697Z,28.00
2017-05-23T10:47:55.721Z,27.90
2017-05-23T10:50:24.787Z,28.00
2017-05-23T10:52:53.847Z,27.90
2017-05-23T10:55:22.878Z,27.80
2017-05-23T10:57:51.986Z,27.90
2017-05-23T11:00:21.099Z,28.00
2017-05-23T11:02:50.140Z,28.10
2017-05-23T11:05:19.162Z,28.30
2017-05-23T11:07:48.262Z,28.40
2017-05-23T11:10:17.279Z,28.60
2017-05-23T11:12:46.315Z,28.60
2017-05-23T11:15:15.428Z,28.50
2017-05-23T11:17:44.450Z,28.60
2017-05-23T11:20:13.463Z,28.50
2017-05-23T11:22:42.535Z,28.30
2017-05-23T11:25:11.579Z,28.20
2017-05-23T11:27:40.606Z,28.40
2017-05-23T11:30:09.621Z,28.60
2017-05-23T11:32:38.661Z,28.60
2017-05-23T11:35:07.681Z,28.60
2017-05-23T11:37:36.810Z,28.60
2017-05-23T11:40:05.829Z,28.40
2017-05-23T11:42:35.118Z,28.50
2017-05-23T11:45:04.147Z,28.70
2017-05-23T11:47:33.287Z,28.70
2017-05-23T11:50:02.305Z,28.80
2017-05-23T11:52:31.327Z,28.80
2017-05-23T11:55:00.397Z,28.90
2017-05-23T11:57:29.448Z,29.00
2017-05-23T11:59:58.563Z,28.90
2017-05-23T12:02:27.686Z,28.70
2017-05-23T12:04:56.755Z,28.70
2017-05-23T12:07:25.829Z,28.70
2017-05-23T12:09:54.891Z,28.60
2017-05-23T12:12:24.048Z,28.60
2017-05-23T12:14:53.057Z,28.70
2017-05-23T12:17:22.094Z,28.60
2017-05-23T12:19:51.113Z,28.50
2017-05-23T12:22:20.145Z,28.50
2017-05-23T12:24:49.165Z,28.60
2017-05-23T12:27:18.275Z,28.80
2017-05-23T12:29:47.300Z,28.80
2017-05-23T12:32:16.362Z,28.70
2017-05-23T12:34:45.378Z,28.60
2017-05-23T12:37:14.495Z,28.50
2017-05-23T12:39:43.498Z,28.50
2017-05-23T12:42:12.534Z,28.50
2017-05-23T12:44:41.620Z,28.50
2017-05-23T12:47:10.668Z,28.60
2017-05-23T12:49:39.689Z,28.70
2017-05-23T12:52:08.721Z,28.80
2017-05-23T12:54:37.802Z,28.80
2017-05-23T12:57:06.824Z,29.00
2017-05-23T12:59:35.862Z,29.10
2017-05-23T13:02:04.978Z,29.10
2017-05-23T13:04:34.026Z,29.30
2017-05-23T13:07:03.073Z,29.40
2017-05-23T13:09:32.135Z,29.50
2017-05-23T13:12:01.203Z,29.50
2017-05-23T13:14:30.239Z,29.60
2017-05-23T13:16:59.249Z,29.70
2017-05-23T13:19:28.308Z,29.70
2017-05-23T13:21:57.358Z,29.80
2017-05-23T13:24:26.524Z,29.80
2017-05-23T13:26:55.619Z,29.80
2017-05-23T13:29:24.671Z,29.90
2017-05-23T13:31:53.696Z,29.90
2017-05-23T13:34:22.723Z,29.90
2017-05-23T13:36:51.841Z,30.00
2017-05-23T13:39:20.882Z,30.10
2017-05-23T13:41:49.964Z,30.00
2017-05-23T13:44:18.972Z,30.00
2017-05-23T13:46:48.008Z,29.90
2017-05-23T13:49:17.010Z,29.90
2017-05-23T13:51:46.163Z,29.90
2017-05-23T13:54:15.176Z,30.00
2017-05-23T13:56:44.242Z,30.00
2017-05-23T13:59:13.263Z,30.10
2017-05-23T14:01:42.294Z,30.20
2017-05-23T14:04:11.309Z,30.10
2017-05-23T14:06:40.474Z,30.10
2017-05-23T14:09:09.491Z,30.10
2017-05-23T14:11:38.556Z,30.00
2017-05-23T14:14:07.578Z,29.90
2017-05-23T14:16:36.619Z,29.80
2017-05-23T14:19:05.650Z,29.70
2017-05-23T14:21:34.686Z,29.60
2017-05-23T14:24:03.750Z,29.60
2017-05-23T14:26:32.767Z,29.70
2017-05-23T14:29:01.866Z,29.60
2017-05-23T14:31:30.958Z,29.50
2017-05-23T14:33:59.998Z,29.50
2017-05-23T14:36:29.405Z,29.50
2017-05-23T14:38:58.516Z,29.40
2017-05-23T14:41:27.524Z,29.50
2017-05-23T14:43:56.643Z,29.50
2017-05-23T14:46:26.434Z,29.60
2017-05-23T14:48:55.637Z,29.70
2017-05-23T14:51:24.658Z,29.70
2017-05-23T14:53:53.722Z,29.70
2017-05-23T14:56:22.736Z,29.70
2017-05-23T14:58:51.750Z,29.70
2017-05-23T15:01:20.779Z,29.80
2017-05-23T15:03:49.806Z,29.70
2017-05-23T15:06:18.859Z,29.70
2017-05-23T15:08:47.868Z,29.80
2017-05-23T15:13:13.422Z,29.80
2017-05-23T15:15:42.563Z,29.80
2017-05-23T15:18:11.570Z,29.80
2017-05-23T15:20:40.606Z,29.80
2017-05-23T15:23:09.701Z,29.70
2017-05-23T15:25:38.803Z,29.70
2017-05-23T15:28:07.890Z,29.70
2017-05-23T15:30:36.969Z,29.70
2017-05-23T15:33:05.981Z,29.60
2017-05-23T15:35:35.011Z,29.60
2017-05-23T15:38:04.075Z,29.60
2017-05-23T15:40:33.118Z,29.60
2017-05-23T15:43:02.257Z,29.50
2017-05-23T15:45:31.339Z,29.40
2017-05-23T15:48:00.531Z,29.30
2017-05-23T15:50:29.746Z,29.30
2017-05-23T15:52:58.848Z,29.20
2017-05-23T15:55:27.192Z,29.20
2017-05-23T15:57:56.418Z,29.00
2017-05-23T16:00:24.685Z,29.00
2017-05-23T16:02:53.006Z,28.90
2017-05-23T16:05:22.035Z,28.70
2017-05-23T16:07:51.116Z,28.60
2017-05-23T16:10:20.185Z,28.60
2017-05-23T16:12:49.222Z,28.50
2017-05-23T16:15:18.347Z,28.50
2017-05-23T16:17:47.433Z,28.40
2017-05-23T16:20:16.480Z,28.40
2017-05-23T16:22:45.702Z,28.30
2017-05-23T16:25:15.147Z,28.20
2017-05-23T16:27:44.249Z,28.20
2017-05-23T16:30:13.321Z,28.10
2017-05-23T16:32:42.568Z,28.00
2017-05-23T16:35:11.698Z,27.90
2017-05-23T16:37:41.202Z,27.70
2017-05-23T16:40:10.305Z,27.70
2017-05-23T16:42:39.319Z,27.60
2017-05-23T16:45:08.358Z,27.50
2017-05-23T16:47:37.471Z,27.40
2017-05-23T16:50:06.578Z,27.40
2017-05-23T16:52:35.591Z,27.40
2017-05-23T16:55:04.756Z,27.30
2017-05-23T16:57:33.809Z,27.10
2017-05-23T17:00:02.828Z,27.00
2017-05-23T17:02:31.906Z,27.00
2017-05-23T17:05:00.969Z,27.00
2017-05-23T17:07:30.014Z,26.90
2017-05-23T17:09:59.132Z,26.80
2017-05-23T17:12:28.367Z,26.70
2017-05-23T17:14:57.375Z,26.60
2017-05-23T17:17:26.524Z,26.50
2017-05-23T17:19:55.527Z,26.50
2017-05-23T17:22:24.589Z,26.40
2017-05-23T17:24:53.695Z,26.30
2017-05-23T17:27:22.718Z,26.30
2017-05-23T17:29:51.736Z,26.20
2017-05-23T17:32:20.805Z,26.20
2017-05-23T17:34:49.838Z,26.10
2017-05-23T17:37:18.963Z,26.00
2017-05-23T17:39:48.194Z,25.90
2017-05-23T17:42:17.519Z,25.80
2017-05-23T17:44:46.802Z,25.80
2017-05-23T17:47:15.861Z,25.70
2017-05-23T17:49:45.086Z,25.70
2017-05-23T17:52:14.250Z,25.60
2017-05-23T17:54:43.492Z,25.60
2017-05-23T17:57:12.585Z,25.50
2017-05-23T17:59:41.652Z,25.30
2017-05-23T18:02:11.185Z,25.30
2017-05-23T18:04:40.300Z,25.20
2017-05-23T18:07:09.509Z,25.10
2017-05-23T18:09:38.687Z,25.20
2017-05-23T18:12:07.993Z,25.20
2017-05-23T18:14:37.331Z,25.10
2017-05-23T18:17:06.528Z,25.10
2017-05-23T18:19:35.602Z,25.10
2017-05-23T18:22:04.783Z,25.00
2017-05-23T18:24:34.125Z,25.00
2017-05-23T18:27:03.557Z,24.90
2017-05-23T18:29:32.695Z,24.70
2017-05-23T18:32:01.999Z,24.70
2017-05-23T18:34:31.083Z,24.60
2017-05-23T18:37:00.563Z,24.50
2017-05-23T18:39:29.744Z,24.40
2017-05-23T18:41:58.829Z,24.30
2017-05-23T18:44:27.908Z,24.30
2017-05-23T18:46:57.295Z,24.20
2017-05-23T18:49:26.465Z,24.10
2017-05-23T18:51:55.660Z,24.00
2017-05-23T18:54:24.784Z,24.00
2017-05-23T18:56:54.045Z,24.00
2017-05-23T18:59:23.303Z,24.00
2017-05-23T19:01:52.527Z,23.90
2017-05-23T19:04:21.573Z,23.90
2017-05-23T19:06:50.912Z,23.90
2017-05-23T19:09:20.036Z,23.80
2017-05-23T19:11:49.192Z,23.80
2017-05-23T19:14:18.388Z,23.70
2017-05-23T19:16:47.727Z,23.70
2017-05-23T19:19:16.808Z,23.60
2017-05-23T19:21:45.898Z,23.60
2017-05-23T19:24:15.060Z,23.60
2017-05-23T19:26:44.156Z,23.50
2017-05-23T19:29:13.186Z,23.40
2017-05-23T19:31:42.295Z,23.40
2017-05-23T19:34:11.945Z,23.40
2017-05-23T19:36:41.033Z,23.30
2017-05-23T19:39:10.170Z,23.30
2017-05-23T19:41:39.223Z,23.40
2017-05-23T19:44:08.577Z,23.30
2017-05-23T19:46:37.694Z,23.20
2017-05-23T19:49:06.733Z,23.20
2017-05-23T19:51:36.364Z,23.10
2017-05-23T19:54:06.075Z,23.10
2017-05-23T19:56:35.145Z,23.00
2017-05-23T19:59:04.360Z,23.00
2017-05-23T20:01:33.577Z,23.00
2017-05-23T20:04:02.632Z,23.00
2017-05-23T20:06:31.721Z,23.10
2017-05-23T20:09:00.913Z,23.10
2017-05-23T20:11:30.083Z,23.00
2017-05-23T20:13:59.113Z,23.00
2017-05-23T20:16:28.300Z,22.90
2017-05-23T20:18:57.410Z,22.80
2017-05-23T20:21:26.486Z,22.70
2017-05-23T20:23:55.587Z,22.70
2017-05-23T20:26:24.984Z,22.70
2017-05-23T20:28:54.494Z,22.60
2017-05-23T20:31:23.599Z,22.60
2017-05-23T20:33:52.692Z,22.40
2017-05-23T20:36:21.817Z,22.40
2017-05-23T20:38:51.069Z,22.40
2017-05-23T20:41:20.215Z,22.20
2017-05-23T20:43:49.722Z,22.10
2017-05-23T20:46:18.812Z,22.20
2017-05-23T20:48:48.332Z,22.20
2017-05-23T20:51:17.529Z,22.20
2017-05-23T20:53:46.915Z,22.20
2017-05-23T20:56:16.205Z,22.10
2017-05-23T20:58:45.496Z,22.00
2017-05-23T21:01:14.569Z,21.90
2017-05-23T21:03:43.721Z,21.80
2017-05-23T21:06:12.964Z,21.80
2017-05-23T21:08:42.203Z,21.80
2017-05-23T21:11:11.493Z,21.70
2017-05-23T21:13:40.502Z,21.60
2017-05-23T21:16:09.802Z,21.60
2017-05-23T21:18:39.108Z,21.50
2017-05-23T21:21:08.663Z,21.50
2017-05-23T21:23:37.874Z,21.50
2017-05-23T21:26:07.090Z,21.50
2017-05-23T21:28:36.294Z,21.50
2017-05-23T21:31:05.416Z,21.50
2017-05-23T21:33:34.472Z,21.40
2017-05-23T21:36:03.496Z,21.40
2017-05-23T21:38:33.068Z,21.40
2017-05-23T21:41:02.157Z,21.20
2017-05-23T21:43:31.256Z,21.20
2017-05-23T21:46:00.412Z,21.20
2017-05-23T21:48:29.422Z,21.20
2017-05-23T21:50:58.473Z,21.20
2017-05-23T21:53:27.594Z,21.10
2017-05-23T21:55:56.647Z,21.20
2017-05-23T21:58:25.753Z,21.00
2017-05-23T22:00:54.862Z,21.00
2017-05-23T22:03:23.947Z,20.90
2017-05-23T22:05:53.216Z,20.90
2017-05-23T22:08:22.336Z,20.80
2017-05-23T22:10:51.444Z,20.80
2017-05-23T22:13:21.158Z,20.70
2017-05-23T22:15:50.416Z,20.70
2017-05-23T22:18:19.460Z,20.60
2017-05-23T22:20:48.511Z,20.50
2017-05-23T22:23:17.632Z,20.50
2017-05-23T22:25:46.800Z,20.40
2017-05-23T22:28:15.837Z,20.40
2017-05-23T22:30:44.925Z,20.30
2017-05-23T22:33:14.502Z,20.30
2017-05-23T22:35:43.619Z,20.30
2017-05-23T22:38:12.729Z,20.10
2017-05-23T22:40:41.860Z,20.00
2017-05-23T22:43:11.082Z,19.90
2017-05-23T22:45:40.278Z,19.90
2017-05-23T22:48:09.369Z,19.90
2017-05-23T22:50:38.842Z,19.90
2017-05-23T22:53:08.039Z,19.80
2017-05-23T22:55:37.022Z,19.80
2017-05-23T22:58:06.127Z,19.80
2017-05-23T23:00:35.267Z,19.80
2017-05-23T23:03:04.480Z,19.60
2017-05-23T23:05:33.707Z,19.60
2017-05-23T23:08:02.787Z,19.60
2017-05-23T23:10:32.176Z,19.50
2017-05-23T23:13:01.239Z,19.50
2017-05-23T23:15:30.442Z,19.40
2017-05-23T23:17:59.510Z,19.40
2017-05-23T23:20:28.618Z,19.40
2017-05-23T23:22:57.737Z,19.30
2017-05-23T23:25:26.856Z,19.30
2017-05-23T23:27:56.006Z,19.30
2017-05-23T23:30:25.516Z,19.30
2017-05-23T23:32:54.611Z,19.20
2017-05-23T23:35:23.669Z,19.20
2017-05-23T23:37:53.064Z,19.30
2017-05-23T23:40:22.209Z,19.20
2017-05-23T23:42:51.468Z,19.20
2017-05-23T23:45:20.576Z,19.20
2017-05-23T23:47:49.751Z,19.20
2017-05-23T23:50:18.821Z,19.20
2017-05-23T23:52:47.963Z,19.20
2017-05-23T23:55:17.082Z,19.10
2017-05-23T23:57:46.329Z,19.10
